TimeCST,TemperatureF,Dew PointF,Humidity,Sea Level PressureIn,VisibilityMPH,Wind Direction,Wind SpeedMPH,Gust SpeedMPH,PrecipitationIn,Events,Conditions,WindDirDegrees,DateUTC
12:53 AM,30.0,24.1,79,30.33,10.0,WNW,4.6,-,N/A,,Overcast,300,2013-03-07 06:53:00
1:53 AM,30.0,21.9,72,30.34,10.0,NW,6.9,-,N/A,,Overcast,310,2013-03-07 07:53:00
2:53 AM,28.9,21.9,75,30.35,10.0,WNW,5.8,-,N/A,,Overcast,290,2013-03-07 08:53:00
3:53 AM,28.9,21.9,75,30.36,10.0,WNW,4.6,-,N/A,,Overcast,300,2013-03-07 09:53:00
4:53 AM,28.0,19.9,72,30.36,10.0,NW,3.5,-,N/A,,Mostly Cloudy,310,2013-03-07 10:53:00
5:53 AM,26.1,19.0,75,30.38,10.0,WNW,4.6,-,N/A,,Mostly Cloudy,300,2013-03-07 11:53:00
6:53 AM,24.1,18.0,77,30.40,10.0,Calm,Calm,-,N/A,,Clear,0,2013-03-07 12:53:00
7:53 AM,26.1,17.1,69,30.42,10.0,NW,6.9,-,N/A,,Partly Cloudy,310,2013-03-07 13:53:00
8:53 AM,28.9,18.0,64,30.43,10.0,NNW,5.8,-,N/A,,Clear,330,2013-03-07 14:53:00
9:53 AM,30.9,19.0,61,30.43,10.0,NW,5.8,-,N/A,,Clear,320,2013-03-07 15:53:00
10:53 AM,32.0,21.9,66,30.42,10.0,NE,8.1,-,N/A,,Clear,40,2013-03-07 16:53:00
11:53 AM,32.0,21.9,66,30.42,10.0,NE,5.8,-,N/A,,Scattered Clouds,40,2013-03-07 17:53:00
12:53 PM,33.1,23.0,66,30.42,10.0,ENE,4.6,-,N/A,,Mostly Cloudy,70,2013-03-07 18:53:00
1:53 PM,33.1,24.1,70,30.41,10.0,Variable,3.5,-,N/A,,Mostly Cloudy,0,2013-03-07 19:53:00
2:36 PM,32.0,24.8,75,30.39,10.0,NE,4.6,-,N/A,,Scattered Clouds,40,2013-03-07 20:36:00
2:53 PM,32.0,24.1,73,30.41,10.0,NE,5.8,-,N/A,,Scattered Clouds,40,2013-03-07 20:53:00
3:05 PM,32.0,24.8,75,30.38,10.0,NE,5.8,-,N/A,,Mostly Cloudy,50,2013-03-07 21:05:00
3:16 PM,32.0,24.8,75,30.39,10.0,NE,6.9,-,N/A,,Scattered Clouds,50,2013-03-07 21:16:00
3:53 PM,32.0,23.0,69,30.42,10.0,NE,5.8,-,N/A,,Clear,50,2013-03-07 21:53:00
4:53 PM,30.0,23.0,75,30.43,10.0,NE,8.1,-,N/A,,Clear,50,2013-03-07 22:53:00
5:53 PM,28.0,21.9,78,30.44,10.0,NE,5.8,-,N/A,,Clear,50,2013-03-07 23:53:00
6:53 PM,27.0,21.9,81,30.45,10.0,NE,4.6,-,N/A,,Clear,40,2013-03-08 00:53:00
7:53 PM,26.1,21.0,81,30.45,10.0,NE,3.5,-,N/A,,Clear,40,2013-03-08 01:53:00
8:53 PM,27.0,21.9,81,30.45,10.0,NE,3.5,-,N/A,,Clear,40,2013-03-08 02:53:00
9:53 PM,25.0,21.9,88,30.45,10.0,NE,3.5,-,N/A,,Scattered Clouds,50,2013-03-08 03:53:00
10:02 PM,26.6,21.2,80,30.43,10.0,NE,3.5,-,N/A,,Mostly Cloudy,40,2013-03-08 04:02:00
10:53 PM,25.0,21.0,85,30.47,10.0,Calm,Calm,-,N/A,,Overcast,0,2013-03-08 04:53:00
11:53 PM,24.1,21.0,88,30.47,10.0,NNE,3.5,-,N/A,,Mostly Cloudy,30,2013-03-08 05:53:00